createdAt,value
2019-03-28T00:00:01.269Z,-0.56
2019-03-28T00:01:01.257Z,-0.51
2019-03-28T00:02:01.252Z,-0.49
2019-03-28T00:03:02.028Z,-0.46
2019-03-28T00:04:01.237Z,-0.45
2019-03-28T00:05:01.388Z,-0.46
2019-03-28T00:06:01.203Z,-0.45
2019-03-28T00:07:01.199Z,-0.42
2019-03-28T00:08:01.179Z,-0.46
2019-03-28T00:09:01.172Z,-0.51
2019-03-28T00:10:01.159Z,-0.44
2019-03-28T00:11:01.162Z,-0.42
2019-03-28T00:12:01.145Z,-0.35
2019-03-28T00:13:01.127Z,-0.36
2019-03-28T00:14:01.123Z,-0.39
2019-03-28T00:15:01.107Z,-0.45
2019-03-28T00:16:01.109Z,-0.28
2019-03-28T00:17:01.086Z,-0.44
2019-03-28T00:18:01.087Z,-0.39
2019-03-28T00:19:01.065Z,-0.46
2019-03-28T00:20:01.057Z,-0.44
2019-03-28T00:21:01.153Z,-0.45
2019-03-28T00:22:01.035Z,-0.41
2019-03-28T00:23:01.028Z,-0.49
2019-03-28T00:24:01.027Z,-0.46
2019-03-28T00:25:00.999Z,-0.46
2019-03-28T00:26:00.991Z,-0.51
2019-03-28T00:27:01.022Z,-0.69
2019-03-28T00:28:00.970Z,-0.67
2019-03-28T00:29:00.961Z,-0.54
2019-03-28T00:30:12.349Z,-0.59
2019-03-28T00:31:00.939Z,-0.54
2019-03-28T00:32:00.929Z,-0.78
2019-03-28T00:33:00.924Z,-0.81
2019-03-28T00:34:00.905Z,-0.75
2019-03-28T00:35:00.897Z,-0.82
2019-03-28T00:36:00.888Z,-0.78
2019-03-28T00:37:00.875Z,-0.78
2019-03-28T00:38:00.876Z,-0.87
2019-03-28T00:39:00.867Z,-0.91
2019-03-28T00:40:00.846Z,-0.91
2019-03-28T00:41:00.834Z,-0.81
2019-03-28T00:42:00.829Z,-0.91
2019-03-28T00:43:00.826Z,-0.94
2019-03-28T00:44:00.976Z,-0.93
2019-03-28T00:45:00.797Z,-1.01
2019-03-28T00:46:00.773Z,-1.01
2019-03-28T00:47:00.763Z,-0.99
2019-03-28T00:48:01.247Z,-1.01
2019-03-28T00:49:00.741Z,-1.00
2019-03-28T00:50:00.748Z,-1.11
2019-03-28T00:51:00.726Z,-1.06
2019-03-28T00:52:00.729Z,-1.15
2019-03-28T00:53:00.701Z,-1.12
2019-03-28T00:54:00.699Z,-1.14
2019-03-28T00:55:00.690Z,-1.17
2019-03-28T00:56:00.668Z,-1.01
2019-03-28T00:57:00.655Z,-1.07
2019-03-28T00:58:00.649Z,-1.04
2019-03-28T00:59:00.639Z,-1.06
2019-03-28T01:00:00.640Z,-0.97
2019-03-28T01:01:12.460Z,-1.04
2019-03-28T01:02:00.603Z,-1.00
2019-03-28T01:03:00.600Z,-1.01
2019-03-28T01:04:00.588Z,-0.99
2019-03-28T01:05:00.615Z,-1.06
2019-03-28T01:06:00.564Z,-1.00
2019-03-28T01:07:00.555Z,-1.09
2019-03-28T01:08:00.543Z,-1.14
2019-03-28T01:09:00.543Z,-1.07
2019-03-28T01:10:00.525Z,-1.04
2019-03-28T01:11:00.515Z,-1.14
2019-03-28T01:12:00.499Z,-1.19
2019-03-28T01:13:00.490Z,-1.19
2019-03-28T01:14:00.478Z,-1.29
2019-03-28T01:15:00.463Z,-1.30
2019-03-28T01:16:00.476Z,-1.27
2019-03-28T01:17:00.630Z,-1.25
2019-03-28T01:18:00.445Z,-1.22
2019-03-28T01:19:00.422Z,-1.27
2019-03-28T01:20:00.632Z,-1.22
2019-03-28T01:21:00.404Z,-1.22
2019-03-28T01:22:00.394Z,-1.22
2019-03-28T01:23:00.394Z,-1.17
2019-03-28T01:24:00.372Z,-1.14
2019-03-28T01:25:00.433Z,-1.22
2019-03-28T01:26:00.349Z,-1.29
2019-03-28T01:27:00.340Z,-1.24
2019-03-28T01:28:00.343Z,-1.29
2019-03-28T01:29:00.323Z,-1.30
2019-03-28T01:30:00.361Z,-1.39
2019-03-28T01:31:00.299Z,-1.35
2019-03-28T01:32:13.713Z,-1.45
2019-03-28T01:33:00.778Z,-1.48
2019-03-28T01:34:00.266Z,-1.51
2019-03-28T01:35:00.348Z,-1.51
2019-03-28T01:36:00.254Z,-1.42
2019-03-28T01:37:00.233Z,-1.51
2019-03-28T01:38:00.222Z,-1.56
2019-03-28T01:39:00.261Z,-1.43
2019-03-28T01:40:00.420Z,-1.68
2019-03-28T01:41:00.192Z,-1.71
2019-03-28T01:42:00.179Z,-1.58
2019-03-28T01:43:00.166Z,-1.51
2019-03-28T01:44:00.157Z,-1.68
2019-03-28T01:45:00.318Z,-1.60
2019-03-28T01:46:00.141Z,-1.82
2019-03-28T01:47:00.125Z,-1.84
2019-03-28T01:48:00.117Z,-1.76
2019-03-28T01:49:00.101Z,-1.79
2019-03-28T01:50:00.180Z,-1.90
2019-03-28T01:51:00.087Z,-1.86
2019-03-28T01:52:00.076Z,-1.90
2019-03-28T01:53:00.062Z,-1.93
2019-03-28T01:54:00.064Z,-1.93
2019-03-28T01:55:00.042Z,-1.93
2019-03-28T01:56:00.085Z,-1.93
2019-03-28T01:57:10.244Z,-1.97
2019-03-28T01:58:01.007Z,-2.00
2019-03-28T01:58:59.995Z,-1.99
2019-03-28T01:59:59.994Z,-2.00
2019-03-28T02:01:02.788Z,-2.11
2019-03-28T02:01:59.982Z,-1.99
2019-03-28T02:03:13.113Z,-2.17
2019-03-28T02:03:59.942Z,-2.14
2019-03-28T02:04:59.929Z,-2.11
2019-03-28T02:05:59.922Z,-2.07
2019-03-28T02:06:59.913Z,-2.14
2019-03-28T02:08:02.626Z,-2.00
2019-03-28T02:08:59.892Z,-2.02
2019-03-28T02:09:59.878Z,-2.08
2019-03-28T02:10:59.877Z,-1.99
2019-03-28T02:11:59.863Z,-1.99
2019-03-28T02:12:59.850Z,-1.93
2019-03-28T02:13:59.877Z,-1.82
2019-03-28T02:14:59.827Z,-1.87
2019-03-28T02:15:59.815Z,-1.87
2019-03-28T02:16:59.801Z,-1.76
2019-03-28T02:17:59.794Z,-1.87
2019-03-28T02:18:59.787Z,-1.82
2019-03-28T02:19:59.857Z,-1.82
2019-03-28T02:20:59.770Z,-1.79
2019-03-28T02:21:59.753Z,-1.72
2019-03-28T02:22:59.750Z,-1.68
2019-03-28T02:23:59.728Z,-1.63
2019-03-28T02:24:59.723Z,-1.63
2019-03-28T02:25:59.753Z,-1.57
2019-03-28T02:26:59.701Z,-1.56
2019-03-28T02:27:59.692Z,-1.56
2019-03-28T02:28:59.674Z,-1.58
2019-03-28T02:29:59.664Z,-1.54
2019-03-28T02:30:59.653Z,-1.69
2019-03-28T02:31:59.690Z,-1.61
2019-03-28T02:32:59.996Z,-1.72
2019-03-28T02:34:13.423Z,-1.78
2019-03-28T02:34:59.613Z,-1.84
2019-03-28T02:35:59.612Z,-1.97
2019-03-28T02:36:59.601Z,-1.94
2019-03-28T02:37:59.585Z,-1.86
2019-03-28T02:38:59.575Z,-1.92
2019-03-28T02:39:59.578Z,-1.92
2019-03-28T02:40:59.554Z,-1.87
2019-03-28T02:41:59.720Z,-1.93
2019-03-28T02:42:59.527Z,-1.97
2019-03-28T02:43:59.525Z,-1.94
2019-03-28T02:44:59.509Z,-2.05
2019-03-28T02:45:59.495Z,-2.13
2019-03-28T02:46:59.487Z,-2.22
2019-03-28T02:47:59.484Z,-2.17
2019-03-28T02:48:59.465Z,-2.15
2019-03-28T02:49:59.465Z,-2.17
2019-03-28T02:50:59.463Z,-2.15
2019-03-28T02:51:59.429Z,-2.20
2019-03-28T02:52:59.437Z,-2.17
2019-03-28T02:53:59.415Z,-2.14
2019-03-28T02:54:59.408Z,-2.22
2019-03-28T02:55:59.394Z,-2.11
2019-03-28T02:56:59.374Z,-2.22
2019-03-28T02:57:59.386Z,-2.22
2019-03-28T02:58:59.397Z,-2.25
2019-03-28T02:59:59.346Z,-2.26
2019-03-28T03:00:59.338Z,-2.13
2019-03-28T03:02:00.266Z,-2.07
2019-03-28T03:02:59.322Z,-2.14
2019-03-28T03:03:59.307Z,-2.10
2019-03-28T03:05:11.817Z,-2.17
2019-03-28T03:05:59.280Z,-2.14
2019-03-28T03:06:59.271Z,-2.11
2019-03-28T03:07:59.268Z,-2.18
2019-03-28T03:08:59.712Z,-2.20
2019-03-28T03:09:59.245Z,-2.07
2019-03-28T03:10:59.241Z,-2.08
2019-03-28T03:11:59.230Z,-2.05
2019-03-28T03:12:59.217Z,-2.08
2019-03-28T03:13:59.213Z,-2.08
2019-03-28T03:14:59.317Z,-2.08
2019-03-28T03:15:59.181Z,-2.00
2019-03-28T03:16:59.166Z,-2.10
2019-03-28T03:17:59.160Z,-2.00
2019-03-28T03:18:59.746Z,-2.14
2019-03-28T03:19:59.129Z,-2.14
2019-03-28T03:20:59.296Z,-2.13
2019-03-28T03:21:59.123Z,-2.13
2019-03-28T03:22:59.106Z,-2.15
2019-03-28T03:23:59.099Z,-2.11
2019-03-28T03:24:59.097Z,-1.97
2019-03-28T03:25:59.073Z,-1.92
2019-03-28T03:26:59.233Z,-1.93
2019-03-28T03:27:59.502Z,-1.93
2019-03-28T03:28:59.039Z,-1.89
2019-03-28T03:29:59.038Z,-1.92
2019-03-28T03:30:59.016Z,-1.90
2019-03-28T03:31:59.013Z,-1.96
2019-03-28T03:32:59.036Z,-1.90
2019-03-28T03:33:58.982Z,-1.84
2019-03-28T03:35:00.346Z,-1.86
2019-03-28T03:36:11.449Z,-1.75
2019-03-28T03:36:58.951Z,-1.71
2019-03-28T03:37:58.946Z,-1.72
2019-03-28T03:38:58.939Z,-1.66
2019-03-28T03:39:58.974Z,-1.66
2019-03-28T03:40:58.906Z,-1.58
2019-03-28T03:41:58.899Z,-1.60
2019-03-28T03:42:58.904Z,-1.56
2019-03-28T03:43:58.920Z,-1.54
2019-03-28T03:44:58.865Z,-1.63
2019-03-28T03:45:58.854Z,-1.56
2019-03-28T03:46:58.867Z,-1.58
2019-03-28T03:47:58.841Z,-1.46
2019-03-28T03:48:58.851Z,-1.54
2019-03-28T03:49:58.814Z,-1.69
2019-03-28T03:50:58.804Z,-1.63
2019-03-28T03:51:58.794Z,-1.57
2019-03-28T03:52:58.786Z,-1.53
2019-03-28T03:53:58.841Z,-1.64
2019-03-28T03:54:58.766Z,-1.61
2019-03-28T03:55:58.753Z,-1.63
2019-03-28T03:56:58.738Z,-1.69
2019-03-28T03:58:14.441Z,-1.68
2019-03-28T03:58:59.753Z,-1.68
2019-03-28T03:59:58.711Z,-1.72
2019-03-28T04:00:58.702Z,-1.71
2019-03-28T04:01:58.683Z,-1.66
2019-03-28T04:02:58.674Z,-1.75
2019-03-28T04:03:58.669Z,-1.71
2019-03-28T04:04:58.676Z,-1.78
2019-03-28T04:05:58.657Z,-1.75
2019-03-28T04:07:10.182Z,-1.75
2019-03-28T04:07:59.981Z,-1.75
2019-03-28T04:08:58.611Z,-1.76
2019-03-28T04:09:58.599Z,-1.76
2019-03-28T04:10:58.602Z,-1.75
2019-03-28T04:11:58.584Z,-1.81
2019-03-28T04:12:58.580Z,-1.76
2019-03-28T04:13:58.560Z,-1.66
2019-03-28T04:14:58.546Z,-1.69
2019-03-28T04:15:58.610Z,-1.63
2019-03-28T04:16:58.531Z,-1.63
2019-03-28T04:17:58.522Z,-1.68
2019-03-28T04:18:58.505Z,-1.68
2019-03-28T04:19:58.773Z,-1.66
2019-03-28T04:20:58.488Z,-1.71
2019-03-28T04:21:58.494Z,-1.71
2019-03-28T04:22:58.477Z,-1.69
2019-03-28T04:23:58.452Z,-1.68
2019-03-28T04:24:58.443Z,-1.68
2019-03-28T04:25:58.431Z,-1.66
2019-03-28T04:26:58.445Z,-1.63
2019-03-28T04:27:58.411Z,-1.57
2019-03-28T04:28:58.395Z,-1.56
2019-03-28T04:29:58.386Z,-1.48
2019-03-28T04:30:58.378Z,-1.42
2019-03-28T04:31:58.389Z,-1.45
2019-03-28T04:32:58.362Z,-1.42
2019-03-28T04:33:58.383Z,-1.40
2019-03-28T04:34:59.551Z,-1.30
2019-03-28T04:35:58.849Z,-1.25
2019-03-28T04:36:58.848Z,-1.30
2019-03-28T04:38:10.894Z,-1.19
2019-03-28T04:38:58.299Z,-1.18
2019-03-28T04:39:58.303Z,-1.04
2019-03-28T04:40:58.310Z,-1.04
2019-03-28T04:41:58.300Z,-0.87
2019-03-28T04:42:58.320Z,-0.82
2019-03-28T04:43:58.303Z,-0.82
2019-03-28T04:44:58.237Z,-0.80
2019-03-28T04:45:58.214Z,-0.60
2019-03-28T04:46:58.209Z,-0.63
2019-03-28T04:47:58.195Z,-0.51
2019-03-28T04:48:58.190Z,-0.49
2019-03-28T04:49:58.179Z,-0.44
2019-03-28T04:50:58.163Z,-0.39
2019-03-28T04:51:58.157Z,-0.24
2019-03-28T04:52:58.152Z,-0.18
2019-03-28T04:53:59.064Z,0.15
2019-03-28T04:54:58.123Z,0.52
2019-03-28T04:55:58.114Z,0.76
2019-03-28T04:56:58.101Z,1.03
2019-03-28T04:57:58.091Z,1.48
2019-03-28T04:58:58.079Z,2.22
2019-03-28T04:59:58.073Z,2.28
2019-03-28T05:00:58.060Z,2.15
2019-03-28T05:02:02.891Z,1.82
2019-03-28T05:02:59.035Z,1.60
2019-03-28T05:03:58.022Z,1.02
2019-03-28T05:04:58.022Z,0.91
2019-03-28T05:05:58.476Z,0.74
2019-03-28T05:06:58.000Z,0.48
2019-03-28T05:07:57.978Z,0.29
2019-03-28T05:09:09.925Z,0.30
2019-03-28T05:09:57.997Z,0.20
2019-03-28T05:10:57.946Z,0.26
2019-03-28T05:11:57.942Z,0.20
2019-03-28T05:12:57.923Z,0.13
2019-03-28T05:13:57.919Z,0.15
2019-03-28T05:14:57.913Z,0.19
2019-03-28T05:15:57.903Z,0.19
2019-03-28T05:16:57.885Z,0.26
2019-03-28T05:17:57.873Z,0.15
2019-03-28T05:18:57.860Z,0.27
2019-03-28T05:19:57.844Z,0.33
2019-03-28T05:20:57.833Z,0.33
2019-03-28T05:21:57.867Z,0.34
2019-03-28T05:22:57.820Z,0.42
2019-03-28T05:23:57.805Z,0.40
2019-03-28T05:24:58.619Z,0.45
2019-03-28T05:25:57.782Z,0.52
2019-03-28T05:26:57.772Z,0.51
2019-03-28T05:27:57.805Z,0.52
2019-03-28T05:28:59.289Z,0.49
2019-03-28T05:29:57.746Z,0.66
2019-03-28T05:30:57.729Z,0.77
2019-03-28T05:31:57.719Z,0.99
2019-03-28T05:32:57.704Z,0.92
2019-03-28T05:33:57.704Z,0.92
2019-03-28T05:34:57.686Z,1.00
2019-03-28T05:35:57.689Z,0.91
2019-03-28T05:36:57.841Z,1.00
2019-03-28T05:37:57.657Z,1.22
2019-03-28T05:38:57.645Z,1.43
2019-03-28T05:40:09.496Z,1.66
2019-03-28T05:40:57.622Z,1.82
2019-03-28T05:41:57.611Z,1.93
2019-03-28T05:42:57.609Z,2.21
2019-03-28T05:43:57.590Z,2.18
2019-03-28T05:44:57.578Z,2.16
2019-03-28T05:45:57.578Z,2.21
2019-03-28T05:46:57.558Z,2.14
2019-03-28T05:48:00.203Z,1.79
2019-03-28T05:48:57.552Z,1.57
2019-03-28T05:49:57.531Z,1.58
2019-03-28T05:50:57.517Z,1.40
2019-03-28T05:51:57.512Z,1.48
2019-03-28T05:52:57.492Z,1.76
2019-03-28T05:53:57.519Z,1.84
2019-03-28T05:54:57.597Z,1.58
2019-03-28T05:55:57.469Z,1.46
2019-03-28T05:56:57.458Z,1.32
2019-03-28T05:57:57.441Z,1.22
2019-03-28T05:59:09.801Z,1.12
2019-03-28T05:59:58.431Z,1.10
2019-03-28T06:00:57.418Z,0.92
2019-03-28T06:01:58.266Z,0.86
2019-03-28T06:02:57.384Z,0.82
2019-03-28T06:03:57.385Z,0.88
2019-03-28T06:04:57.423Z,1.03
2019-03-28T06:05:57.361Z,1.14
2019-03-28T06:06:57.365Z,1.07
2019-03-28T06:07:57.329Z,1.25
2019-03-28T06:08:57.325Z,1.32
2019-03-28T06:09:57.315Z,1.34
2019-03-28T06:11:09.981Z,1.42
2019-03-28T06:11:57.286Z,1.46
2019-03-28T06:12:57.275Z,1.57
2019-03-28T06:13:57.274Z,1.84
2019-03-28T06:14:57.264Z,1.93
2019-03-28T06:15:57.276Z,2.00
2019-03-28T06:16:57.239Z,1.84
2019-03-28T06:17:57.234Z,1.85
2019-03-28T06:18:57.217Z,1.95
2019-03-28T06:19:57.199Z,1.93
2019-03-28T06:20:59.486Z,1.98
2019-03-28T06:21:57.191Z,2.00
2019-03-28T06:22:57.431Z,1.95
2019-03-28T06:23:57.181Z,2.14
2019-03-28T06:24:57.145Z,2.72
2019-03-28T06:25:57.142Z,2.98
2019-03-28T06:26:57.135Z,2.93
2019-03-28T06:27:57.121Z,2.85
2019-03-28T06:28:57.114Z,2.77
2019-03-28T06:29:57.098Z,2.68
2019-03-28T06:30:57.081Z,2.58
2019-03-28T06:31:57.074Z,2.69
2019-03-28T06:32:58.851Z,2.51
2019-03-28T06:33:57.051Z,2.55
2019-03-28T06:34:57.086Z,2.68
2019-03-28T06:35:57.032Z,2.80
2019-03-28T06:36:57.116Z,2.85
2019-03-28T06:37:57.027Z,3.00
2019-03-28T06:38:57.004Z,3.00
2019-03-28T06:39:56.983Z,3.05
2019-03-28T06:40:57.360Z,3.24
2019-03-28T06:42:10.592Z,3.45
2019-03-28T06:42:57.021Z,3.37
2019-03-28T06:43:57.005Z,3.43
2019-03-28T06:44:56.931Z,3.48
2019-03-28T06:45:56.934Z,3.37
2019-03-28T06:46:56.903Z,3.18
2019-03-28T06:47:56.900Z,2.93
2019-03-28T06:48:56.883Z,2.80
2019-03-28T06:49:56.938Z,2.83
2019-03-28T06:50:56.859Z,2.93
2019-03-28T06:51:57.525Z,3.06
2019-03-28T06:52:57.552Z,3.18
2019-03-28T06:53:57.271Z,3.33
2019-03-28T06:54:56.923Z,3.29
2019-03-28T06:55:57.133Z,3.27
2019-03-28T06:56:56.923Z,3.24
2019-03-28T06:57:56.799Z,3.12
2019-03-28T06:58:56.973Z,3.01
2019-03-28T06:59:56.879Z,3.11
2019-03-28T07:00:56.819Z,3.22
2019-03-28T07:01:56.918Z,3.26
2019-03-28T07:02:56.975Z,3.26
2019-03-28T07:03:56.781Z,3.41
2019-03-28T07:04:56.803Z,3.30
2019-03-28T07:05:56.713Z,3.16
2019-03-28T07:06:56.780Z,3.15
2019-03-28T07:07:56.712Z,3.19
2019-03-28T07:08:56.901Z,3.30
2019-03-28T07:09:56.737Z,3.29
2019-03-28T07:10:58.097Z,3.29
2019-03-28T07:11:56.907Z,3.21
2019-03-28T07:13:10.355Z,3.08
2019-03-28T07:13:56.615Z,3.16
2019-03-28T07:14:59.461Z,3.11
2019-03-28T07:15:56.610Z,3.11
2019-03-28T07:16:56.593Z,3.16
2019-03-28T07:17:56.611Z,3.13
2019-03-28T07:18:56.568Z,3.21
2019-03-28T07:19:56.600Z,3.16
2019-03-28T07:20:56.556Z,3.18
2019-03-28T07:21:56.529Z,3.19
2019-03-28T07:22:56.543Z,3.21
2019-03-28T07:23:56.799Z,3.29
2019-03-28T07:24:56.526Z,3.34
2019-03-28T07:25:56.491Z,3.41
2019-03-28T07:26:56.474Z,3.56
2019-03-28T07:27:56.464Z,3.61
2019-03-28T07:28:56.584Z,3.58
2019-03-28T07:29:56.479Z,3.74
2019-03-28T07:30:56.435Z,3.91
2019-03-28T07:31:56.428Z,3.95
2019-03-28T07:32:56.417Z,4.06
2019-03-28T07:33:56.440Z,3.96
2019-03-28T07:34:56.397Z,3.94
2019-03-28T07:35:56.382Z,4.06
2019-03-28T07:36:56.378Z,4.10
2019-03-28T07:37:56.358Z,4.06
2019-03-28T07:38:56.352Z,3.91
2019-03-28T07:39:56.343Z,3.95
2019-03-28T07:40:56.372Z,4.16
2019-03-28T07:41:56.381Z,4.48
2019-03-28T07:42:56.295Z,4.52
2019-03-28T07:44:09.523Z,4.82
2019-03-28T07:44:56.293Z,4.75
2019-03-28T07:45:56.278Z,4.61
2019-03-28T07:46:56.276Z,4.70
2019-03-28T07:47:56.242Z,4.84
2019-03-28T07:48:56.237Z,4.86
2019-03-28T07:49:56.317Z,5.00
2019-03-28T07:50:56.266Z,5.16
2019-03-28T07:51:56.207Z,5.10
2019-03-28T07:52:56.189Z,4.92
2019-03-28T07:53:56.180Z,4.78
2019-03-28T07:54:56.166Z,4.70
2019-03-28T07:55:56.200Z,4.64
2019-03-28T07:56:56.150Z,4.79
2019-03-28T07:57:56.190Z,5.05
2019-03-28T07:58:56.122Z,5.25
2019-03-28T08:00:04.079Z,5.29
2019-03-28T08:00:57.157Z,5.36
2019-03-28T08:01:56.086Z,5.28
2019-03-28T08:02:58.427Z,5.19
2019-03-28T08:03:56.073Z,5.07
2019-03-28T08:04:56.063Z,5.10
2019-03-28T08:05:56.078Z,5.08
2019-03-28T08:06:56.047Z,5.25
2019-03-28T08:07:57.027Z,5.40
2019-03-28T08:08:56.028Z,5.46
2019-03-28T08:09:56.029Z,5.46
2019-03-28T08:10:55.990Z,5.29
2019-03-28T08:11:56.025Z,5.56
2019-03-28T08:12:55.977Z,5.88
2019-03-28T08:13:55.957Z,5.94
2019-03-28T08:15:09.137Z,5.83
2019-03-28T08:15:55.936Z,5.79
2019-03-28T08:16:55.921Z,6.10
2019-03-28T08:17:55.950Z,6.25
2019-03-28T08:18:55.908Z,5.99
2019-03-28T08:19:55.897Z,5.95
2019-03-28T08:20:55.888Z,5.97
2019-03-28T08:21:55.897Z,5.92
2019-03-28T08:22:55.865Z,5.88
2019-03-28T08:23:55.869Z,5.91
2019-03-28T08:24:55.851Z,5.95
2019-03-28T08:25:55.835Z,5.88
2019-03-28T08:26:55.831Z,5.79
2019-03-28T08:27:57.647Z,5.98
2019-03-28T08:28:55.853Z,6.06
2019-03-28T08:29:57.809Z,5.99
2019-03-28T08:30:55.781Z,6.07
2019-03-28T08:31:55.799Z,6.16
2019-03-28T08:32:55.767Z,6.38
2019-03-28T08:33:55.743Z,6.41
2019-03-28T08:34:55.777Z,6.34
2019-03-28T08:35:55.727Z,6.22
2019-03-28T08:36:55.720Z,6.20
2019-03-28T08:37:55.697Z,6.13
2019-03-28T08:38:55.688Z,6.05
2019-03-28T08:39:55.954Z,6.10
2019-03-28T08:40:55.685Z,6.09
2019-03-28T08:41:55.661Z,6.19
2019-03-28T08:42:55.652Z,6.32
2019-03-28T08:43:55.907Z,6.65
2019-03-28T08:44:56.284Z,6.64
2019-03-28T08:46:09.154Z,6.60
2019-03-28T08:46:55.623Z,6.68
2019-03-28T08:47:55.601Z,6.59
2019-03-28T08:48:55.578Z,6.62
2019-03-28T08:49:58.616Z,6.82
2019-03-28T08:50:55.562Z,6.71
2019-03-28T08:51:55.613Z,6.90
2019-03-28T08:52:55.566Z,6.78
2019-03-28T08:53:55.527Z,6.62
2019-03-28T08:54:55.518Z,6.68
2019-03-28T08:55:55.504Z,6.90
2019-03-28T08:56:55.569Z,6.86
2019-03-28T08:57:55.487Z,6.92
2019-03-28T08:58:55.471Z,6.89
2019-03-28T08:59:55.461Z,6.89
2019-03-28T09:00:55.450Z,6.93
2019-03-28T09:01:55.438Z,7.03
2019-03-28T09:02:55.468Z,6.87
2019-03-28T09:03:55.414Z,6.89
2019-03-28T09:04:55.406Z,6.92
2019-03-28T09:05:55.397Z,6.89
2019-03-28T09:06:55.417Z,6.83
2019-03-28T09:07:55.631Z,7.01
2019-03-28T09:08:55.396Z,7.18
2019-03-28T09:09:55.347Z,7.28
2019-03-28T09:10:55.336Z,7.22
2019-03-28T09:11:55.326Z,7.14
2019-03-28T09:12:55.315Z,7.13
2019-03-28T09:13:55.326Z,7.22
2019-03-28T09:14:55.310Z,7.33
2019-03-28T09:15:55.287Z,7.40
2019-03-28T09:17:08.276Z,7.36
2019-03-28T09:17:55.288Z,7.37
2019-03-28T09:18:55.243Z,7.39
2019-03-28T09:19:55.239Z,7.44
2019-03-28T09:20:55.244Z,7.81
2019-03-28T09:21:55.219Z,7.81
2019-03-28T09:22:55.214Z,7.83
2019-03-28T09:23:55.224Z,7.78
2019-03-28T09:24:55.185Z,7.51
2019-03-28T09:25:55.175Z,7.59
2019-03-28T09:26:55.157Z,7.66
2019-03-28T09:27:55.141Z,7.75
2019-03-28T09:28:55.207Z,7.85
2019-03-28T09:29:55.139Z,8.01
2019-03-28T09:30:55.111Z,8.06
2019-03-28T09:31:55.177Z,8.14
2019-03-28T09:32:55.090Z,7.95
2019-03-28T09:33:55.090Z,7.91
2019-03-28T09:34:55.068Z,8.09
2019-03-28T09:35:55.064Z,8.14
2019-03-28T09:36:55.113Z,8.06
2019-03-28T09:37:55.050Z,7.98
2019-03-28T09:38:55.027Z,7.96
2019-03-28T09:39:55.018Z,8.09
2019-03-28T09:40:55.018Z,8.14
2019-03-28T09:41:54.993Z,8.08
2019-03-28T09:42:54.978Z,8.11
2019-03-28T09:43:56.015Z,8.01
2019-03-28T09:44:55.006Z,8.06
2019-03-28T09:45:54.954Z,8.06
2019-03-28T09:46:54.950Z,7.95
2019-03-28T09:48:06.471Z,7.90
2019-03-28T09:48:54.932Z,7.84
2019-03-28T09:49:54.910Z,7.83
2019-03-28T09:50:54.917Z,7.78
2019-03-28T09:51:54.896Z,7.74
2019-03-28T09:52:54.922Z,7.64
2019-03-28T09:53:55.010Z,7.69
2019-03-28T09:54:54.869Z,7.69
2019-03-28T09:55:54.899Z,7.81
2019-03-28T09:56:54.826Z,7.85
2019-03-28T09:57:54.849Z,7.87
2019-03-28T09:58:54.847Z,7.93
2019-03-28T09:59:54.973Z,7.93
2019-03-28T10:01:02.735Z,8.18
2019-03-28T10:01:55.782Z,8.18
2019-03-28T10:02:54.764Z,8.16
2019-03-28T10:03:54.760Z,8.32
2019-03-28T10:04:54.986Z,8.39
2019-03-28T10:05:54.731Z,8.39
2019-03-28T10:06:54.735Z,8.39
2019-03-28T10:07:54.817Z,8.49
2019-03-28T10:08:54.762Z,8.53
2019-03-28T10:09:54.779Z,8.46
2019-03-28T10:10:54.703Z,8.63
2019-03-28T10:11:54.671Z,8.61
2019-03-28T10:12:54.653Z,8.63
2019-03-28T10:13:54.689Z,8.71
2019-03-28T10:14:54.634Z,8.72
2019-03-28T10:15:57.347Z,8.68
2019-03-28T10:16:54.609Z,8.49
2019-03-28T10:17:54.883Z,8.61
2019-03-28T10:19:07.213Z,8.68
2019-03-28T10:19:54.587Z,8.56
2019-03-28T10:20:54.564Z,8.53
2019-03-28T10:21:54.553Z,8.42
2019-03-28T10:22:54.540Z,8.50
2019-03-28T10:23:54.557Z,8.54
2019-03-28T10:24:54.658Z,8.52
2019-03-28T10:25:54.511Z,8.56
2019-03-28T10:26:54.501Z,8.56
2019-03-28T10:27:54.489Z,8.57
2019-03-28T10:28:54.476Z,8.50
2019-03-28T10:29:54.466Z,8.63
2019-03-28T10:30:54.501Z,8.53
2019-03-28T10:31:54.450Z,8.35
2019-03-28T10:32:54.451Z,8.50
2019-03-28T10:33:54.420Z,8.63
2019-03-28T10:34:54.411Z,8.69
2019-03-28T10:35:54.401Z,8.74
2019-03-28T10:36:54.431Z,8.84
2019-03-28T10:37:54.385Z,8.92
2019-03-28T10:38:54.368Z,8.93
2019-03-28T10:39:54.364Z,8.90
2019-03-28T10:40:54.343Z,8.77
2019-03-28T10:41:54.886Z,8.95
2019-03-28T10:42:54.348Z,8.82
2019-03-28T10:43:54.314Z,8.81
2019-03-28T10:44:54.313Z,8.84
2019-03-28T10:45:54.287Z,8.72
2019-03-28T10:46:54.319Z,8.72
2019-03-28T10:47:54.277Z,8.63
2019-03-28T10:48:54.641Z,8.61
2019-03-28T10:50:07.471Z,8.63
2019-03-28T10:50:54.238Z,8.61
2019-03-28T10:51:54.223Z,8.71
2019-03-28T10:52:54.249Z,8.74
2019-03-28T10:53:54.201Z,8.71
2019-03-28T10:54:54.192Z,8.71
2019-03-28T10:55:54.190Z,8.89
2019-03-28T10:56:57.547Z,8.81
2019-03-28T10:57:54.162Z,8.77
2019-03-28T10:58:54.163Z,8.89
2019-03-28T10:59:54.141Z,8.72
2019-03-28T11:00:54.868Z,8.84
2019-03-28T11:01:54.145Z,8.86
2019-03-28T11:02:54.184Z,8.82
2019-03-28T11:03:54.094Z,8.79
2019-03-28T11:04:54.085Z,8.87
2019-03-28T11:05:54.069Z,8.75
2019-03-28T11:06:54.062Z,9.00
2019-03-28T11:07:54.095Z,8.97
2019-03-28T11:08:54.051Z,9.00
2019-03-28T11:09:54.038Z,8.86
2019-03-28T11:10:54.024Z,8.90
2019-03-28T11:11:54.017Z,8.99
2019-03-28T11:12:53.994Z,9.09
2019-03-28T11:13:53.997Z,9.09
2019-03-28T11:14:53.975Z,9.13
2019-03-28T11:15:53.969Z,9.21
2019-03-28T11:16:53.958Z,9.11
2019-03-28T11:17:53.948Z,9.11
2019-03-28T11:18:53.951Z,9.18
2019-03-28T11:19:56.009Z,8.97
2019-03-28T11:21:06.275Z,8.99
2019-03-28T11:21:53.907Z,8.90
2019-03-28T11:22:53.890Z,8.96
2019-03-28T11:23:53.885Z,8.99
2019-03-28T11:24:53.909Z,8.72
2019-03-28T11:25:57.149Z,8.86
2019-03-28T11:26:53.847Z,8.95
2019-03-28T11:27:53.848Z,8.86
2019-03-28T11:28:53.828Z,8.81
2019-03-28T11:29:53.813Z,8.74
2019-03-28T11:30:53.814Z,8.78
2019-03-28T11:31:53.786Z,8.75
2019-03-28T11:32:53.774Z,8.72
2019-03-28T11:33:53.771Z,9.00
2019-03-28T11:34:53.754Z,8.96
2019-03-28T11:35:53.921Z,9.03
2019-03-28T11:36:53.747Z,9.02
2019-03-28T11:37:54.730Z,9.12
2019-03-28T11:38:54.878Z,9.11
2019-03-28T11:39:53.708Z,9.00
2019-03-28T11:40:53.693Z,8.97
2019-03-28T11:41:53.698Z,9.11
2019-03-28T11:42:53.942Z,9.08
2019-03-28T11:43:53.672Z,8.96
2019-03-28T11:44:53.643Z,9.08
2019-03-28T11:45:53.677Z,8.95
2019-03-28T11:46:53.623Z,8.74
2019-03-28T11:47:53.611Z,8.82
2019-03-28T11:48:53.615Z,8.78
2019-03-28T11:49:53.601Z,8.82
2019-03-28T11:50:53.583Z,8.96
2019-03-28T11:52:05.307Z,8.93
2019-03-28T11:52:53.555Z,8.77
2019-03-28T11:53:53.547Z,8.69
2019-03-28T11:54:53.541Z,8.81
2019-03-28T11:55:53.523Z,8.84
2019-03-28T11:56:53.695Z,8.99
2019-03-28T11:57:56.372Z,8.87
2019-03-28T11:58:53.501Z,8.79
2019-03-28T11:59:53.480Z,8.86
2019-03-28T12:00:53.472Z,8.82
2019-03-28T12:02:00.389Z,8.89
2019-03-28T12:02:54.457Z,8.86
2019-03-28T12:03:53.438Z,8.95
2019-03-28T12:04:53.434Z,9.09
2019-03-28T12:05:53.417Z,9.08
2019-03-28T12:06:53.411Z,9.19
2019-03-28T12:07:53.439Z,9.13
2019-03-28T12:08:55.858Z,9.03
2019-03-28T12:09:53.368Z,9.09
2019-03-28T12:10:53.359Z,9.33
2019-03-28T12:11:53.425Z,9.40
2019-03-28T12:12:53.344Z,9.42
2019-03-28T12:13:53.341Z,9.37
2019-03-28T12:14:53.330Z,9.42
2019-03-28T12:15:53.308Z,9.51
2019-03-28T12:16:53.310Z,9.52
2019-03-28T12:17:53.294Z,9.45
2019-03-28T12:18:53.292Z,9.45
2019-03-28T12:19:53.260Z,9.33
2019-03-28T12:20:53.291Z,9.33
2019-03-28T12:21:53.265Z,9.31
2019-03-28T12:23:05.917Z,9.29
2019-03-28T12:23:53.218Z,9.34
2019-03-28T12:24:53.207Z,9.27
2019-03-28T12:25:53.196Z,9.40
2019-03-28T12:26:53.354Z,9.40
2019-03-28T12:27:53.188Z,9.47
2019-03-28T12:28:53.158Z,9.45
2019-03-28T12:29:53.151Z,9.27
2019-03-28T12:30:53.141Z,9.27
2019-03-28T12:31:53.134Z,9.16
2019-03-28T12:32:53.160Z,9.03
2019-03-28T12:33:53.123Z,8.97
2019-03-28T12:34:53.104Z,8.95
2019-03-28T12:35:53.082Z,9.02
2019-03-28T12:36:53.072Z,9.09
2019-03-28T12:37:53.066Z,9.08
2019-03-28T12:38:53.062Z,9.19
2019-03-28T12:39:53.045Z,9.16
2019-03-28T12:40:53.032Z,9.13
2019-03-28T12:41:53.416Z,9.08
2019-03-28T12:42:53.002Z,9.08
2019-03-28T12:43:52.994Z,8.97
2019-03-28T12:44:57.199Z,8.93
2019-03-28T12:45:52.988Z,9.05
2019-03-28T12:46:52.989Z,9.29
2019-03-28T12:47:52.991Z,9.21
2019-03-28T12:48:52.939Z,9.34
2019-03-28T12:49:52.932Z,9.16
2019-03-28T12:50:58.713Z,9.15
2019-03-28T12:51:53.910Z,9.09
2019-03-28T12:52:52.899Z,9.08
2019-03-28T12:54:05.915Z,9.08
2019-03-28T12:54:52.874Z,9.21
2019-03-28T12:55:52.862Z,9.16
2019-03-28T12:56:52.855Z,9.19
2019-03-28T12:57:52.838Z,9.05
2019-03-28T12:58:52.830Z,9.02
2019-03-28T12:59:53.694Z,9.00
2019-03-28T13:00:52.807Z,8.90
2019-03-28T13:01:55.127Z,8.93
2019-03-28T13:02:52.784Z,8.93
2019-03-28T13:03:52.777Z,8.75
2019-03-28T13:04:53.403Z,8.68
2019-03-28T13:05:52.751Z,8.81
2019-03-28T13:06:52.746Z,8.87
2019-03-28T13:07:52.745Z,8.84